sensor_id;sensor_type;location;lat;lon;timestamp;P1;durP1;ratioP1;P2;durP2;ratioP2
11422;SDS011;5768;51.476;7.210;2023-02-22T00:02:31;58.40;;;28.20;;
11422;SDS011;5768;51.476;7.210;2023-02-22T00:07:36;63.50;;;28.37;;
11422;SDS011;5768;51.476;7.210;2023-02-22T00:12:39;55.90;;;28.17;;
11422;SDS011;5768;51.476;7.210;2023-02-22T00:17:44;59.00;;;28.60;;
11422;SDS011;5768;51.476;7.210;2023-02-22T00:22:47;54.13;;;26.77;;
11422;SDS011;5768;51.476;7.210;2023-02-22T00:27:51;60.17;;;28.93;;
11422;SDS011;5768;51.476;7.210;2023-02-22T00:32:55;58.70;;;27.60;;
11422;SDS011;5768;51.476;7.210;2023-02-22T00:37:58;55.97;;;26.90;;
11422;SDS011;5768;51.476;7.210;2023-02-22T00:43:03;55.87;;;28.10;;
11422;SDS011;5768;51.476;7.210;2023-02-22T00:48:08;60.63;;;27.93;;
11422;SDS011;5768;51.476;7.210;2023-02-22T00:53:10;61.27;;;28.43;;
11422;SDS011;5768;51.476;7.210;2023-02-22T00:58:14;88.97;;;27.73;;
11422;SDS011;5768;51.476;7.210;2023-02-22T01:03:19;74.90;;;26.57;;
11422;SDS011;5768;51.476;7.210;2023-02-22T01:08:21;118.70;;;26.67;;
11422;SDS011;5768;51.476;7.210;2023-02-22T01:13:24;106.77;;;27.00;;
11422;SDS011;5768;51.476;7.210;2023-02-22T01:18:28;89.53;;;28.30;;
11422;SDS011;5768;51.476;7.210;2023-02-22T01:23:30;91.17;;;28.70;;
11422;SDS011;5768;51.476;7.210;2023-02-22T01:28:32;106.43;;;26.37;;
11422;SDS011;5768;51.476;7.210;2023-02-22T01:33:37;135.40;;;25.40;;
11422;SDS011;5768;51.476;7.210;2023-02-22T01:38:40;113.93;;;23.33;;
11422;SDS011;5768;51.476;7.210;2023-02-22T01:43:44;114.50;;;23.77;;
11422;SDS011;5768;51.476;7.210;2023-02-22T01:48:48;116.93;;;23.50;;
11422;SDS011;5768;51.476;7.210;2023-02-22T01:53:56;222.03;;;23.70;;
11422;SDS011;5768;51.476;7.210;2023-02-22T01:59:04;295.10;;;26.13;;
11422;SDS011;5768;51.476;7.210;2023-02-22T02:04:13;130.40;;;23.33;;
11422;SDS011;5768;51.476;7.210;2023-02-22T02:09:25;165.50;;;20.53;;
11422;SDS011;5768;51.476;7.210;2023-02-22T02:14:35;183.33;;;21.57;;
11422;SDS011;5768;51.476;7.210;2023-02-22T02:19:44;201.50;;;22.67;;
11422;SDS011;5768;51.476;7.210;2023-02-22T02:30:48;122.60;;;20.23;;
11422;SDS011;5768;51.476;7.210;2023-02-22T02:36:29;79.53;;;18.10;;
11422;SDS011;5768;51.476;7.210;2023-02-22T02:41:38;95.70;;;18.63;;
11422;SDS011;5768;51.476;7.210;2023-02-22T02:46:48;218.47;;;21.43;;
11422;SDS011;5768;51.476;7.210;2023-02-22T02:51:58;146.80;;;19.70;;
11422;SDS011;5768;51.476;7.210;2023-02-22T02:57:04;173.57;;;20.60;;
11422;SDS011;5768;51.476;7.210;2023-02-22T03:02:10;76.37;;;17.17;;
11422;SDS011;5768;51.476;7.210;2023-02-22T03:07:33;139.77;;;18.97;;
11422;SDS011;5768;51.476;7.210;2023-02-22T03:12:50;134.77;;;20.00;;
11422;SDS011;5768;51.476;7.210;2023-02-22T03:18:04;158.27;;;19.60;;
11422;SDS011;5768;51.476;7.210;2023-02-22T03:23:20;185.90;;;19.27;;
11422;SDS011;5768;51.476;7.210;2023-02-22T03:28:27;144.03;;;19.37;;
11422;SDS011;5768;51.476;7.210;2023-02-22T03:33:34;121.67;;;19.80;;
11422;SDS011;5768;51.476;7.210;2023-02-22T03:38:43;130.67;;;18.10;;
11422;SDS011;5768;51.476;7.210;2023-02-22T03:43:48;98.13;;;18.73;;
11422;SDS011;5768;51.476;7.210;2023-02-22T03:48:57;174.33;;;20.57;;
11422;SDS011;5768;51.476;7.210;2023-02-22T03:54:06;118.77;;;17.60;;
11422;SDS011;5768;51.476;7.210;2023-02-22T03:59:15;93.77;;;16.67;;
11422;SDS011;5768;51.476;7.210;2023-02-22T04:04:18;67.23;;;16.53;;
11422;SDS011;5768;51.476;7.210;2023-02-22T04:09:24;41.97;;;14.57;;
11422;SDS011;5768;51.476;7.210;2023-02-22T04:14:26;44.10;;;14.57;;
11422;SDS011;5768;51.476;7.210;2023-02-22T04:19:28;36.80;;;14.40;;
11422;SDS011;5768;51.476;7.210;2023-02-22T04:24:32;49.67;;;14.27;;
11422;SDS011;5768;51.476;7.210;2023-02-22T04:29:34;37.97;;;13.53;;
11422;SDS011;5768;51.476;7.210;2023-02-22T04:34:37;34.33;;;13.50;;
11422;SDS011;5768;51.476;7.210;2023-02-22T04:39:40;37.00;;;12.60;;
11422;SDS011;5768;51.476;7.210;2023-02-22T04:44:42;28.73;;;12.70;;
11422;SDS011;5768;51.476;7.210;2023-02-22T04:49:44;74.47;;;14.13;;
11422;SDS011;5768;51.476;7.210;2023-02-22T04:54:48;138.07;;;14.30;;
11422;SDS011;5768;51.476;7.210;2023-02-22T04:59:50;64.93;;;13.97;;
11422;SDS011;5768;51.476;7.210;2023-02-22T05:04:53;93.30;;;16.30;;
11422;SDS011;5768;51.476;7.210;2023-02-22T05:09:56;176.30;;;16.47;;
11422;SDS011;5768;51.476;7.210;2023-02-22T05:14:58;117.47;;;16.53;;
11422;SDS011;5768;51.476;7.210;2023-02-22T05:20:00;169.53;;;14.57;;
11422;SDS011;5768;51.476;7.210;2023-02-22T05:25:05;50.60;;;12.10;;
11422;SDS011;5768;51.476;7.210;2023-02-22T05:30:09;54.67;;;10.00;;
11422;SDS011;5768;51.476;7.210;2023-02-22T05:35:12;42.23;;;10.07;;
11422;SDS011;5768;51.476;7.210;2023-02-22T05:40:16;81.03;;;10.73;;
11422;SDS011;5768;51.476;7.210;2023-02-22T05:45:21;105.30;;;11.10;;
11422;SDS011;5768;51.476;7.210;2023-02-22T05:50:25;34.13;;;8.93;;
11422;SDS011;5768;51.476;7.210;2023-02-22T05:55:31;54.20;;;10.13;;
11422;SDS011;5768;51.476;7.210;2023-02-22T06:00:33;63.30;;;9.63;;
11422;SDS011;5768;51.476;7.210;2023-02-22T06:05:35;66.90;;;9.80;;
11422;SDS011;5768;51.476;7.210;2023-02-22T06:10:39;62.60;;;10.83;;
11422;SDS011;5768;51.476;7.210;2023-02-22T06:15:41;62.00;;;10.77;;
11422;SDS011;5768;51.476;7.210;2023-02-22T06:20:43;41.70;;;9.80;;
11422;SDS011;5768;51.476;7.210;2023-02-22T06:25:46;30.17;;;9.93;;
11422;SDS011;5768;51.476;7.210;2023-02-22T06:30:49;36.20;;;10.53;;
11422;SDS011;5768;51.476;7.210;2023-02-22T06:35:51;20.67;;;10.23;;
11422;SDS011;5768;51.476;7.210;2023-02-22T06:40:54;44.23;;;11.30;;
11422;SDS011;5768;51.476;7.210;2023-02-22T06:45:57;27.07;;;10.43;;
11422;SDS011;5768;51.476;7.210;2023-02-22T06:51:02;14.17;;;9.90;;
11422;SDS011;5768;51.476;7.210;2023-02-22T06:56:06;15.57;;;11.07;;
11422;SDS011;5768;51.476;7.210;2023-02-22T07:01:08;13.20;;;10.27;;
11422;SDS011;5768;51.476;7.210;2023-02-22T07:06:11;12.13;;;9.17;;
11422;SDS011;5768;51.476;7.210;2023-02-22T07:11:15;11.47;;;9.33;;
11422;SDS011;5768;51.476;7.210;2023-02-22T07:16:17;11.77;;;9.47;;
11422;SDS011;5768;51.476;7.210;2023-02-22T07:21:20;10.77;;;9.10;;
11422;SDS011;5768;51.476;7.210;2023-02-22T07:26:24;9.83;;;8.83;;
11422;SDS011;5768;51.476;7.210;2023-02-22T07:31:27;12.10;;;9.13;;
11422;SDS011;5768;51.476;7.210;2023-02-22T07:36:35;12.80;;;10.27;;
11422;SDS011;5768;51.476;7.210;2023-02-22T07:41:39;13.23;;;9.50;;
11422;SDS011;5768;51.476;7.210;2023-02-22T07:46:41;14.73;;;10.43;;
11422;SDS011;5768;51.476;7.210;2023-02-22T07:51:49;17.77;;;10.70;;
11422;SDS011;5768;51.476;7.210;2023-02-22T07:56:52;17.27;;;10.63;;
11422;SDS011;5768;51.476;7.210;2023-02-22T08:01:55;16.33;;;10.57;;
11422;SDS011;5768;51.476;7.210;2023-02-22T08:06:57;16.23;;;10.47;;
11422;SDS011;5768;51.476;7.210;2023-02-22T08:12:01;16.47;;;10.90;;
11422;SDS011;5768;51.476;7.210;2023-02-22T08:17:03;15.97;;;11.60;;
11422;SDS011;5768;51.476;7.210;2023-02-22T08:22:05;15.93;;;11.73;;
11422;SDS011;5768;51.476;7.210;2023-02-22T08:27:09;15.03;;;12.00;;
11422;SDS011;5768;51.476;7.210;2023-02-22T08:32:11;18.00;;;12.50;;
11422;SDS011;5768;51.476;7.210;2023-02-22T08:37:15;15.57;;;12.00;;
11422;SDS011;5768;51.476;7.210;2023-02-22T08:42:20;15.03;;;11.80;;
11422;SDS011;5768;51.476;7.210;2023-02-22T08:47:23;16.47;;;12.27;;
11422;SDS011;5768;51.476;7.210;2023-02-22T08:52:26;16.60;;;13.40;;
11422;SDS011;5768;51.476;7.210;2023-02-22T08:57:30;17.33;;;14.10;;
11422;SDS011;5768;51.476;7.210;2023-02-22T09:02:32;16.27;;;13.50;;
11422;SDS011;5768;51.476;7.210;2023-02-22T09:07:34;17.87;;;13.20;;
11422;SDS011;5768;51.476;7.210;2023-02-22T09:12:37;17.50;;;13.03;;
11422;SDS011;5768;51.476;7.210;2023-02-22T09:17:39;12.87;;;10.93;;
11422;SDS011;5768;51.476;7.210;2023-02-22T09:22:42;14.83;;;11.90;;
11422;SDS011;5768;51.476;7.210;2023-02-22T09:27:49;14.77;;;11.97;;
11422;SDS011;5768;51.476;7.210;2023-02-22T09:32:54;12.77;;;10.70;;
11422;SDS011;5768;51.476;7.210;2023-02-22T09:37:59;13.23;;;10.37;;
11422;SDS011;5768;51.476;7.210;2023-02-22T09:43:14;13.00;;;10.70;;
11422;SDS011;5768;51.476;7.210;2023-02-22T09:48:35;12.20;;;10.88;;
11422;SDS011;5768;51.476;7.210;2023-02-22T09:53:58;13.48;;;10.65;;
11422;SDS011;5768;51.476;7.210;2023-02-22T09:59:04;13.90;;;10.27;;
11422;SDS011;5768;51.476;7.210;2023-02-22T10:04:14;12.20;;;9.85;;
11422;SDS011;5768;51.476;7.210;2023-02-22T10:09:23;14.85;;;9.88;;
11422;SDS011;5768;51.476;7.210;2023-02-22T10:14:33;12.63;;;10.43;;
11422;SDS011;5768;51.476;7.210;2023-02-22T10:20:13;14.23;;;10.85;;
11422;SDS011;5768;51.476;7.210;2023-02-22T10:25:27;11.82;;;10.10;;
11422;SDS011;5768;51.476;7.210;2023-02-22T10:30:38;14.10;;;10.20;;
11422;SDS011;5768;51.476;7.210;2023-02-22T10:35:54;15.40;;;10.40;;
11422;SDS011;5768;51.476;7.210;2023-02-22T10:40:57;13.57;;;10.43;;
11422;SDS011;5768;51.476;7.210;2023-02-22T10:46:07;13.18;;;10.95;;
11422;SDS011;5768;51.476;7.210;2023-02-22T10:51:15;12.95;;;10.32;;
11422;SDS011;5768;51.476;7.210;2023-02-22T10:56:18;19.50;;;11.30;;
11422;SDS011;5768;51.476;7.210;2023-02-22T11:01:26;14.35;;;11.18;;
11422;SDS011;5768;51.476;7.210;2023-02-22T11:06:38;13.07;;;11.13;;
11422;SDS011;5768;51.476;7.210;2023-02-22T11:11:44;15.20;;;10.07;;
11422;SDS011;5768;51.476;7.210;2023-02-22T11:16:50;12.95;;;9.43;;
11422;SDS011;5768;51.476;7.210;2023-02-22T11:21:56;12.60;;;9.07;;
11422;SDS011;5768;51.476;7.210;2023-02-22T11:27:19;10.20;;;8.15;;
11422;SDS011;5768;51.476;7.210;2023-02-22T11:32:29;7.78;;;5.28;;
11422;SDS011;5768;51.476;7.210;2023-02-22T11:37:33;5.05;;;4.53;;
11422;SDS011;5768;51.476;7.210;2023-02-22T11:42:37;5.68;;;4.82;;
11422;SDS011;5768;51.476;7.210;2023-02-22T11:47:48;5.32;;;4.70;;
11422;SDS011;5768;51.476;7.210;2023-02-22T11:52:57;6.93;;;4.45;;
11422;SDS011;5768;51.476;7.210;2023-02-22T11:58:32;7.97;;;6.32;;
11422;SDS011;5768;51.476;7.210;2023-02-22T12:03:55;9.27;;;7.18;;
11422;SDS011;5768;51.476;7.210;2023-02-22T12:09:31;6.93;;;5.70;;
11422;SDS011;5768;51.476;7.210;2023-02-22T12:14:43;6.35;;;5.15;;
11422;SDS011;5768;51.476;7.210;2023-02-22T12:19:59;4.88;;;4.40;;
11422;SDS011;5768;51.476;7.210;2023-02-22T12:25:16;8.45;;;5.10;;
11422;SDS011;5768;51.476;7.210;2023-02-22T12:30:23;7.32;;;5.88;;
11422;SDS011;5768;51.476;7.210;2023-02-22T12:35:32;7.90;;;6.75;;
11422;SDS011;5768;51.476;7.210;2023-02-22T12:40:40;20.05;;;15.07;;
11422;SDS011;5768;51.476;7.210;2023-02-22T12:45:55;5.82;;;4.93;;
11422;SDS011;5768;51.476;7.210;2023-02-22T12:51:14;8.52;;;6.03;;
11422;SDS011;5768;51.476;7.210;2023-02-22T12:56:29;5.20;;;4.55;;
11422;SDS011;5768;51.476;7.210;2023-02-22T13:01:36;5.90;;;4.90;;
11422;SDS011;5768;51.476;7.210;2023-02-22T13:06:47;6.22;;;4.13;;
11422;SDS011;5768;51.476;7.210;2023-02-22T13:12:06;4.65;;;3.78;;
11422;SDS011;5768;51.476;7.210;2023-02-22T13:17:18;4.20;;;3.75;;
11422;SDS011;5768;51.476;7.210;2023-02-22T13:22:36;7.15;;;3.70;;
11422;SDS011;5768;51.476;7.210;2023-02-22T13:27:50;5.18;;;3.60;;
11422;SDS011;5768;51.476;7.210;2023-02-22T13:33:07;4.32;;;3.47;;
11422;SDS011;5768;51.476;7.210;2023-02-22T13:50:57;6.07;;;4.15;;
11422;SDS011;5768;51.476;7.210;2023-02-22T13:56:33;5.43;;;4.18;;
11422;SDS011;5768;51.476;7.210;2023-02-22T14:01:41;14.63;;;11.05;;
11422;SDS011;5768;51.476;7.210;2023-02-22T14:06:45;7.07;;;4.78;;
11422;SDS011;5768;51.476;7.210;2023-02-22T14:11:48;6.53;;;4.72;;
11422;SDS011;5768;51.476;7.210;2023-02-22T14:22:27;7.15;;;4.45;;
11422;SDS011;5768;51.476;7.210;2023-02-22T14:27:37;4.95;;;4.07;;
11422;SDS011;5768;51.476;7.210;2023-02-22T14:32:42;6.78;;;4.40;;
11422;SDS011;5768;51.476;7.210;2023-02-22T14:37:48;6.22;;;4.63;;
11422;SDS011;5768;51.476;7.210;2023-02-22T14:42:57;5.78;;;4.30;;
11422;SDS011;5768;51.476;7.210;2023-02-22T14:48:11;6.05;;;4.45;;
11422;SDS011;5768;51.476;7.210;2023-02-22T14:53:25;6.72;;;5.32;;
11422;SDS011;5768;51.476;7.210;2023-02-22T14:58:39;6.75;;;4.90;;
11422;SDS011;5768;51.476;7.210;2023-02-22T15:03:48;7.93;;;5.22;;
11422;SDS011;5768;51.476;7.210;2023-02-22T15:09:03;8.75;;;5.45;;
11422;SDS011;5768;51.476;7.210;2023-02-22T15:14:13;8.45;;;5.50;;
11422;SDS011;5768;51.476;7.210;2023-02-22T15:19:23;7.78;;;5.82;;
11422;SDS011;5768;51.476;7.210;2023-02-22T15:24:30;8.35;;;6.07;;
11422;SDS011;5768;51.476;7.210;2023-02-22T15:29:37;7.93;;;5.50;;
11422;SDS011;5768;51.476;7.210;2023-02-22T15:34:45;6.95;;;5.78;;
11422;SDS011;5768;51.476;7.210;2023-02-22T15:39:47;8.38;;;5.90;;
11422;SDS011;5768;51.476;7.210;2023-02-22T15:44:58;8.38;;;6.55;;
11422;SDS011;5768;51.476;7.210;2023-02-22T15:50:14;8.32;;;6.22;;
11422;SDS011;5768;51.476;7.210;2023-02-22T15:55:24;10.45;;;6.88;;
11422;SDS011;5768;51.476;7.210;2023-02-22T16:00:30;8.45;;;6.63;;
11422;SDS011;5768;51.476;7.210;2023-02-22T16:05:38;9.20;;;7.03;;
11422;SDS011;5768;51.476;7.210;2023-02-22T16:10:48;8.82;;;7.65;;
11422;SDS011;5768;51.476;7.210;2023-02-22T16:15:59;9.88;;;7.10;;
11422;SDS011;5768;51.476;7.210;2023-02-22T16:21:06;8.60;;;6.45;;
11422;SDS011;5768;51.476;7.210;2023-02-22T16:26:19;10.65;;;7.40;;
11422;SDS011;5768;51.476;7.210;2023-02-22T16:31:28;8.57;;;6.93;;
11422;SDS011;5768;51.476;7.210;2023-02-22T16:36:38;15.10;;;7.63;;
11422;SDS011;5768;51.476;7.210;2023-02-22T16:41:43;13.75;;;9.52;;
11422;SDS011;5768;51.476;7.210;2023-02-22T16:46:46;11.48;;;7.88;;
11422;SDS011;5768;51.476;7.210;2023-02-22T16:51:49;10.55;;;7.50;;
11422;SDS011;5768;51.476;7.210;2023-02-22T16:56:56;9.32;;;7.80;;
11422;SDS011;5768;51.476;7.210;2023-02-22T17:02:01;10.20;;;7.63;;
11422;SDS011;5768;51.476;7.210;2023-02-22T17:07:08;10.77;;;7.68;;
11422;SDS011;5768;51.476;7.210;2023-02-22T17:12:10;14.40;;;8.23;;
11422;SDS011;5768;51.476;7.210;2023-02-22T17:17:12;12.75;;;8.68;;
11422;SDS011;5768;51.476;7.210;2023-02-22T17:22:19;13.00;;;9.20;;
11422;SDS011;5768;51.476;7.210;2023-02-22T17:27:22;12.85;;;8.80;;
11422;SDS011;5768;51.476;7.210;2023-02-22T17:32:24;15.50;;;9.45;;
11422;SDS011;5768;51.476;7.210;2023-02-22T17:37:28;14.23;;;8.73;;
11422;SDS011;5768;51.476;7.210;2023-02-22T17:42:31;13.02;;;9.45;;
11422;SDS011;5768;51.476;7.210;2023-02-22T17:47:33;10.10;;;9.10;;
11422;SDS011;5768;51.476;7.210;2023-02-22T17:52:36;12.18;;;9.27;;
11422;SDS011;5768;51.476;7.210;2023-02-22T17:57:39;11.63;;;8.95;;
11422;SDS011;5768;51.476;7.210;2023-02-22T18:02:43;11.15;;;9.73;;
11422;SDS011;5768;51.476;7.210;2023-02-22T18:07:46;12.32;;;10.82;;
11422;SDS011;5768;51.476;7.210;2023-02-22T18:12:48;13.68;;;11.75;;
11422;SDS011;5768;51.476;7.210;2023-02-22T18:17:52;12.65;;;10.90;;
11422;SDS011;5768;51.476;7.210;2023-02-22T18:22:56;12.95;;;11.23;;
11422;SDS011;5768;51.476;7.210;2023-02-22T18:27:59;12.68;;;11.38;;
11422;SDS011;5768;51.476;7.210;2023-02-22T18:33:03;12.65;;;11.43;;
11422;SDS011;5768;51.476;7.210;2023-02-22T18:38:07;12.98;;;11.65;;
11422;SDS011;5768;51.476;7.210;2023-02-22T18:43:13;13.02;;;11.73;;
11422;SDS011;5768;51.476;7.210;2023-02-22T18:48:15;13.68;;;11.40;;
11422;SDS011;5768;51.476;7.210;2023-02-22T18:53:19;15.25;;;13.05;;
11422;SDS011;5768;51.476;7.210;2023-02-22T18:58:21;14.15;;;12.65;;
11422;SDS011;5768;51.476;7.210;2023-02-22T19:03:23;15.27;;;12.32;;
11422;SDS011;5768;51.476;7.210;2023-02-22T19:08:27;13.52;;;12.13;;
11422;SDS011;5768;51.476;7.210;2023-02-22T19:13:31;14.30;;;13.00;;
11422;SDS011;5768;51.476;7.210;2023-02-22T19:18:34;14.82;;;13.35;;
11422;SDS011;5768;51.476;7.210;2023-02-22T19:23:38;14.57;;;13.07;;
11422;SDS011;5768;51.476;7.210;2023-02-22T19:28:44;15.82;;;14.30;;
11422;SDS011;5768;51.476;7.210;2023-02-22T19:33:49;18.05;;;16.30;;
11422;SDS011;5768;51.476;7.210;2023-02-22T19:38:53;19.67;;;17.23;;
11422;SDS011;5768;51.476;7.210;2023-02-22T19:43:55;20.63;;;18.42;;
11422;SDS011;5768;51.476;7.210;2023-02-22T19:48:58;20.25;;;18.25;;
11422;SDS011;5768;51.476;7.210;2023-02-22T19:54:04;22.48;;;20.08;;
11422;SDS011;5768;51.476;7.210;2023-02-22T19:59:08;22.58;;;19.88;;
11422;SDS011;5768;51.476;7.210;2023-02-22T20:04:16;22.75;;;20.45;;
11422;SDS011;5768;51.476;7.210;2023-02-22T20:09:22;22.73;;;20.30;;
11422;SDS011;5768;51.476;7.210;2023-02-22T20:14:35;23.67;;;21.05;;
11422;SDS011;5768;51.476;7.210;2023-02-22T20:19:39;25.85;;;22.75;;
11422;SDS011;5768;51.476;7.210;2023-02-22T20:24:43;24.60;;;21.95;;
11422;SDS011;5768;51.476;7.210;2023-02-22T20:29:46;25.30;;;22.60;;
11422;SDS011;5768;51.476;7.210;2023-02-22T20:34:48;28.07;;;22.23;;
11422;SDS011;5768;51.476;7.210;2023-02-22T20:39:52;26.65;;;23.38;;
11422;SDS011;5768;51.476;7.210;2023-02-22T20:44:54;25.42;;;22.90;;
11422;SDS011;5768;51.476;7.210;2023-02-22T20:50:01;26.45;;;23.67;;
11422;SDS011;5768;51.476;7.210;2023-02-22T20:55:06;25.17;;;22.57;;
11422;SDS011;5768;51.476;7.210;2023-02-22T21:00:11;26.63;;;23.73;;
11422;SDS011;5768;51.476;7.210;2023-02-22T21:05:17;28.10;;;25.30;;
11422;SDS011;5768;51.476;7.210;2023-02-22T21:10:20;27.40;;;24.13;;
11422;SDS011;5768;51.476;7.210;2023-02-22T21:15:22;25.47;;;22.97;;
11422;SDS011;5768;51.476;7.210;2023-02-22T21:20:25;27.00;;;22.85;;
11422;SDS011;5768;51.476;7.210;2023-02-22T21:25:28;25.02;;;22.27;;
11422;SDS011;5768;51.476;7.210;2023-02-22T21:30:31;25.90;;;23.23;;
11422;SDS011;5768;51.476;7.210;2023-02-22T21:35:33;26.33;;;23.60;;
11422;SDS011;5768;51.476;7.210;2023-02-22T21:40:38;26.77;;;24.03;;
11422;SDS011;5768;51.476;7.210;2023-02-22T21:45:40;26.88;;;23.98;;
11422;SDS011;5768;51.476;7.210;2023-02-22T21:50:43;27.33;;;24.50;;
11422;SDS011;5768;51.476;7.210;2023-02-22T21:55:48;26.80;;;24.13;;
11422;SDS011;5768;51.476;7.210;2023-02-22T22:00:51;27.07;;;24.33;;
11422;SDS011;5768;51.476;7.210;2023-02-22T22:05:53;26.30;;;23.60;;
11422;SDS011;5768;51.476;7.210;2023-02-22T22:10:57;26.70;;;23.80;;
11422;SDS011;5768;51.476;7.210;2023-02-22T22:16:04;26.07;;;23.37;;
11422;SDS011;5768;51.476;7.210;2023-02-22T22:21:09;26.07;;;23.43;;
11422;SDS011;5768;51.476;7.210;2023-02-22T22:26:17;26.47;;;23.77;;
11422;SDS011;5768;51.476;7.210;2023-02-22T22:31:20;25.83;;;23.13;;
11422;SDS011;5768;51.476;7.210;2023-02-22T22:36:25;26.70;;;24.00;;
11422;SDS011;5768;51.476;7.210;2023-02-22T22:41:29;27.93;;;25.13;;
11422;SDS011;5768;51.476;7.210;2023-02-22T22:46:32;28.63;;;25.63;;
11422;SDS011;5768;51.476;7.210;2023-02-22T22:51:38;29.33;;;26.33;;
11422;SDS011;5768;51.476;7.210;2023-02-22T22:56:43;29.67;;;26.57;;
11422;SDS011;5768;51.476;7.210;2023-02-22T23:01:45;31.33;;;27.93;;
11422;SDS011;5768;51.476;7.210;2023-02-22T23:06:48;31.58;;;28.17;;
11422;SDS011;5768;51.476;7.210;2023-02-22T23:11:54;30.83;;;27.50;;
11422;SDS011;5768;51.476;7.210;2023-02-22T23:17:07;31.73;;;28.37;;
11422;SDS011;5768;51.476;7.210;2023-02-22T23:22:14;32.47;;;29.03;;
11422;SDS011;5768;51.476;7.210;2023-02-22T23:27:18;32.40;;;29.03;;
11422;SDS011;5768;51.476;7.210;2023-02-22T23:32:22;32.13;;;28.63;;
11422;SDS011;5768;51.476;7.210;2023-02-22T23:37:25;34.05;;;30.60;;
11422;SDS011;5768;51.476;7.210;2023-02-22T23:42:29;33.45;;;30.08;;
11422;SDS011;5768;51.476;7.210;2023-02-22T23:47:32;34.25;;;30.75;;
11422;SDS011;5768;51.476;7.210;2023-02-22T23:52:34;34.30;;;30.70;;
11422;SDS011;5768;51.476;7.210;2023-02-22T23:57:37;35.25;;;31.55;;
